createdAt,value
2022-08-29T00:00:29.856Z,13.275872
2022-08-29T00:05:32.180Z,13.303514
2022-08-29T00:10:34.783Z,13.551538
2022-08-29T00:15:44.430Z,13.598326
2022-08-29T00:20:47.433Z,12.978252
2022-08-29T00:25:49.549Z,12.565154
2022-08-29T00:30:51.305Z,12.834918
2022-08-29T00:35:53.521Z,13.174468
2022-08-29T00:40:55.502Z,12.714868
2022-08-29T00:45:57.380Z,12.549822
2022-08-29T00:50:59.307Z,12.130888
2022-08-29T00:56:01.066Z,12.683536
2022-08-29T01:01:02.656Z,13.574756
2022-08-29T01:06:04.485Z,13.720574
2022-08-29T01:11:06.142Z,12.914692
2022-08-29T01:16:07.710Z,13.003396
2022-08-29T01:21:09.578Z,13.249832
2022-08-29T01:26:11.037Z,13.156542
2022-08-29T01:31:12.801Z,13.3119
2022-08-29T01:36:14.556Z,12.039972
2022-08-29T01:41:18.215Z,11.027686
2022-08-29T01:46:19.830Z,11.692322
2022-08-29T01:51:21.588Z,10.666344
2022-08-29T01:56:23.067Z,10.68499
2022-08-29T02:01:25.386Z,10.849058
2022-08-29T02:06:27.880Z,11.269904
2022-08-29T02:11:29.544Z,11.926764
2022-08-29T02:16:31.157Z,12.206906
2022-08-29T02:21:32.725Z,12.792716
2022-08-29T02:26:34.238Z,12.369306
2022-08-29T02:31:35.895Z,12.317674
2022-08-29T02:36:37.909Z,12.27664
2022-08-29T02:41:44.424Z,12.193228
2022-08-29T02:46:46.217Z,12.190134
2022-08-29T02:51:47.809Z,12.006104
2022-08-29T02:56:49.808Z,11.83293
2022-08-29T03:01:51.954Z,11.757904
2022-08-29T03:06:54.249Z,11.892948
2022-08-29T03:11:56.144Z,11.907684
2022-08-29T03:16:57.702Z,12.014042
2022-08-29T03:21:59.286Z,11.837178
2022-08-29T03:27:00.732Z,11.616958
2022-08-29T03:32:02.379Z,11.997814
2022-08-29T03:37:04.674Z,11.969032
2022-08-29T03:42:06.392Z,12.604372
2022-08-29T03:47:07.869Z,12.085974
2022-08-29T03:52:09.430Z,12.433748
2022-08-29T03:57:11.419Z,12.485042
2022-08-29T04:02:12.873Z,12.353974
2022-08-29T04:07:14.815Z,12.015372
2022-08-29T04:12:16.736Z,12.311934
2022-08-29T04:17:18.615Z,12.046256
2022-08-29T04:22:20.377Z,11.85969
2022-08-29T04:27:22.131Z,11.961528
2022-08-29T04:32:24.034Z,12.157744
2022-08-29T04:37:26.176Z,11.97195
2022-08-29T04:42:27.979Z,12.2582
2022-08-29T04:47:29.919Z,12.028874
2022-08-29T04:52:31.849Z,12.18704
2022-08-29T04:57:33.603Z,11.75808
2022-08-29T05:02:35.390Z,12.498176
2022-08-29T05:07:38.157Z,12.42315
2022-08-29T05:12:40.268Z,12.726348
2022-08-29T05:17:42.094Z,12.596162
2022-08-29T05:22:44.679Z,12.810194
2022-08-29T05:27:46.494Z,12.90366
2022-08-29T05:32:48.266Z,12.928142
2022-08-29T05:37:50.232Z,13.128848
2022-08-29T05:42:52.698Z,13.29787
2022-08-29T05:47:54.326Z,13.751458
2022-08-29T05:52:56.506Z,13.545012
2022-08-29T05:57:58.386Z,13.35816
2022-08-29T06:03:00.500Z,13.717576
2022-08-29T06:08:02.758Z,14.320892
2022-08-29T06:13:04.521Z,15.087122
2022-08-29T06:18:06.117Z,15.098602
2022-08-29T06:23:07.684Z,15.125348
2022-08-29T06:28:09.492Z,15.555042
2022-08-29T06:33:11.189Z,15.52379
2022-08-29T06:38:14.021Z,15.84015
2022-08-29T06:43:16.291Z,16.125614
2022-08-29T06:48:17.973Z,16.456534
2022-08-29T06:53:31.643Z,16.942012
2022-08-29T06:58:34.650Z,16.929922
2022-08-29T07:03:36.461Z,16.817118
2022-08-29T07:08:43.673Z,17.597082
2022-08-29T07:13:58.296Z,18.082574
2022-08-29T07:19:00.383Z,18.212326
2022-08-29T07:24:01.868Z,18.756886
2022-08-29T07:29:03.601Z,18.465222
2022-08-29T07:34:05.146Z,19.206704
2022-08-29T07:39:07.014Z,18.60796
2022-08-29T07:44:09.212Z,19.24687
2022-08-29T07:49:10.988Z,19.40771
2022-08-29T07:54:12.447Z,19.921278
2022-08-29T07:59:13.903Z,20.48968
2022-08-29T08:04:15.612Z,20.0183
2022-08-29T08:09:18.895Z,20.433746
2022-08-29T08:14:20.354Z,20.885138
2022-08-29T08:19:22.613Z,21.214336
2022-08-29T08:24:24.328Z,21.637178
2022-08-29T08:29:26.300Z,21.606714
2022-08-29T08:34:28.167Z,21.404134
2022-08-29T08:39:30.468Z,22.022486
2022-08-29T08:44:32.995Z,21.930186
2022-08-29T08:49:37.113Z,22.261216
2022-08-29T08:54:38.905Z,22.777132
2022-08-29T08:59:40.869Z,22.861928
2022-08-29T09:04:42.618Z,23.481136
2022-08-29T09:09:44.806Z,23.505656
2022-08-29T09:14:46.592Z,23.229162
2022-08-29T09:19:48.500Z,23.908388
2022-08-29T09:24:50.449Z,24.180716
2022-08-29T09:29:52.291Z,24.12884
2022-08-29T09:35:08.883Z,24.239622
2022-08-29T09:40:12.755Z,23.825844
2022-08-29T09:45:18.250Z,24.008084
2022-08-29T09:50:19.928Z,24.668896
2022-08-29T09:55:21.850Z,24.711016
2022-08-29T10:00:23.521Z,24.772134
2022-08-29T10:05:27.187Z,25.383214
2022-08-29T10:10:29.216Z,24.708818
2022-08-29T10:15:49.498Z,24.876294
2022-08-29T10:20:52.471Z,25.72662
2022-08-29T10:25:54.247Z,25.210676
2022-08-29T10:30:55.982Z,25.483208
2022-08-29T10:35:57.803Z,25.194936
2022-08-29T10:41:00.444Z,26.280762
2022-08-29T10:46:02.458Z,25.906906
2022-08-29T10:51:04.337Z,25.086392
2022-08-29T10:56:07.023Z,25.564422
2022-08-29T11:01:09.359Z,26.417598
2022-08-29T11:06:11.135Z,25.487822
2022-08-29T11:11:13.764Z,25.551138
2022-08-29T11:16:15.731Z,25.392238
2022-08-29T11:21:17.967Z,26.22073
2022-08-29T11:26:20.616Z,25.341718
2022-08-29T11:31:22.444Z,25.996546
2022-08-29T11:36:24.044Z,26.422416
2022-08-29T11:41:28.009Z,26.537648
2022-08-29T11:46:30.470Z,25.808906
2022-08-29T11:51:32.256Z,26.278754
2022-08-29T11:56:34.280Z,25.797684
2022-08-29T12:01:36.091Z,25.868504
2022-08-29T12:06:38.197Z,25.56791
2022-08-29T12:11:40.719Z,25.868056
2022-08-29T12:16:42.821Z,25.897638
2022-08-29T12:21:44.835Z,26.884148
2022-08-29T12:26:46.822Z,26.124074
2022-08-29T12:32:02.398Z,26.55286
2022-08-29T12:37:19.332Z,26.36066
2022-08-29T12:42:21.501Z,25.215928
2022-08-29T12:47:23.533Z,26.252754
2022-08-29T12:52:25.419Z,26.229116
2022-08-29T12:57:27.141Z,25.756148
2022-08-29T13:02:28.678Z,26.047704
2022-08-29T13:07:31.352Z,25.659328
2022-08-29T13:12:33.999Z,25.606352
2022-08-29T13:17:36.063Z,25.545208
2022-08-29T13:22:37.811Z,25.518964
2022-08-29T13:27:39.698Z,25.52465
2022-08-29T13:32:41.668Z,25.457562
2022-08-29T13:37:43.410Z,25.37856
2022-08-29T13:42:45.872Z,25.315474
2022-08-29T13:47:47.741Z,25.162274
2022-08-29T13:52:49.825Z,25.21263
2022-08-29T13:57:51.921Z,25.529114
2022-08-29T14:02:53.670Z,24.939176
2022-08-29T14:07:55.328Z,25.123912
2022-08-29T14:12:57.781Z,24.29519
2022-08-29T14:17:59.235Z,25.377868
2022-08-29T14:23:01.208Z,24.7227
2022-08-29T14:28:03.030Z,24.468012
2022-08-29T14:33:04.605Z,24.396948
2022-08-29T14:38:10.464Z,23.920058
2022-08-29T14:43:13.847Z,23.86293
2022-08-29T14:48:15.642Z,24.156346
2022-08-29T14:53:17.194Z,24.547028
2022-08-29T14:58:18.798Z,24.039226
2022-08-29T15:03:20.255Z,23.39197
2022-08-29T15:08:22.199Z,23.373624
2022-08-29T15:13:24.595Z,23.620116
2022-08-29T15:19:07.823Z,23.206976
2022-08-29T15:24:29.791Z,22.998018
2022-08-29T15:29:32.137Z,23.060492
2022-08-29T15:34:34.106Z,22.463498
2022-08-29T15:39:35.977Z,22.465954
2022-08-29T15:44:37.966Z,22.442126
2022-08-29T15:49:39.760Z,21.97137
2022-08-29T15:54:41.840Z,22.04356
2022-08-29T15:59:57.599Z,21.825266
2022-08-29T16:04:59.928Z,21.603064
2022-08-29T16:10:03.603Z,21.209356
2022-08-29T16:15:09.809Z,20.969256
2022-08-29T16:20:11.674Z,20.548436
2022-08-29T16:25:13.111Z,20.816096
2022-08-29T16:30:14.669Z,20.283178
2022-08-29T16:35:16.278Z,20.528828
2022-08-29T16:40:17.953Z,20.414518
2022-08-29T16:45:19.937Z,20.215452
2022-08-29T16:50:21.400Z,19.911534
2022-08-29T16:55:22.872Z,19.821134
2022-08-29T17:00:24.724Z,19.941428
2022-08-29T17:05:26.163Z,19.702658
2022-08-29T17:10:27.755Z,19.556052
2022-08-29T17:15:29.540Z,19.367584
2022-08-29T17:20:35.419Z,19.059148
2022-08-29T17:25:38.960Z,18.354182
2022-08-29T17:30:41.007Z,18.099182
2022-08-29T17:35:42.666Z,17.782374
2022-08-29T17:40:44.338Z,17.96844
2022-08-29T17:45:46.668Z,17.765154
2022-08-29T17:50:48.230Z,17.656136
2022-08-29T17:55:50.739Z,17.375436
2022-08-29T18:00:52.846Z,17.204012
2022-08-29T18:05:54.472Z,17.509246
2022-08-29T18:10:56.124Z,17.301374
2022-08-29T18:15:58.030Z,17.381258
2022-08-29T18:20:59.977Z,17.329544
2022-08-29T18:26:01.482Z,17.002056
2022-08-29T18:31:03.605Z,17.183712
2022-08-29T18:36:05.264Z,16.752064
2022-08-29T18:41:07.636Z,16.574818
2022-08-29T18:46:09.796Z,17.142488
2022-08-29T18:51:11.302Z,16.683918
2022-08-29T18:56:12.899Z,16.773952
2022-08-29T19:01:14.945Z,16.304798
2022-08-29T19:06:16.591Z,16.028074
2022-08-29T19:11:18.272Z,15.613646
2022-08-29T19:16:20.574Z,15.53668
2022-08-29T19:21:22.234Z,14.971494
2022-08-29T19:26:27.833Z,15.293324
2022-08-29T19:31:29.550Z,15.289348
2022-08-29T19:36:31.309Z,15.20637
2022-08-29T19:41:32.872Z,15.47559
2022-08-29T19:46:34.917Z,14.97467
2022-08-29T19:51:36.663Z,14.826816
2022-08-29T19:56:38.575Z,14.895396
2022-08-29T20:01:40.195Z,14.851974
2022-08-29T20:06:41.894Z,14.952864
2022-08-29T20:11:46.034Z,14.373648
2022-08-29T20:16:48.118Z,13.98739
2022-08-29T20:21:50.076Z,13.963114
2022-08-29T20:26:51.793Z,13.734766
2022-08-29T20:31:55.213Z,13.617376
2022-08-29T20:36:56.920Z,13.899216
2022-08-29T20:41:58.876Z,13.219992
2022-08-29T20:47:01.112Z,12.677252
2022-08-29T20:52:03.160Z,12.55712
2022-08-29T20:57:05.388Z,12.907188
2022-08-29T21:02:07.112Z,13.149038
2022-08-29T21:07:08.729Z,12.769498
2022-08-29T21:12:10.174Z,13.18242
2022-08-29T21:17:12.890Z,12.009522
2022-08-29T21:22:14.450Z,12.63075
2022-08-29T21:27:16.135Z,12.137782
2022-08-29T21:32:17.794Z,11.8811
2022-08-29T21:37:19.578Z,12.233556
2022-08-29T21:42:21.138Z,12.22076
2022-08-29T21:47:23.141Z,11.824882
2022-08-29T21:52:24.640Z,11.91535
2022-08-29T21:57:26.543Z,11.31559
2022-08-29T22:02:28.527Z,11.227158
2022-08-29T22:07:30.391Z,12.209714
2022-08-29T22:12:32.497Z,11.75808
2022-08-29T22:17:34.477Z,10.893186
2022-08-29T22:22:36.739Z,11.179054
2022-08-29T22:27:38.375Z,11.49593
2022-08-29T22:32:40.288Z,11.52383
2022-08-29T22:37:42.051Z,10.656084
2022-08-29T22:42:43.837Z,10.856004
2022-08-29T22:47:46.389Z,11.247024
2022-08-29T22:52:48.364Z,10.758032
2022-08-29T22:57:50.260Z,10.817602
2022-08-29T23:02:52.116Z,11.15505
2022-08-29T23:07:53.890Z,10.556782
2022-08-29T23:12:55.790Z,11.845998
2022-08-29T23:17:58.267Z,10.102068
2022-08-29T23:23:00.274Z,9.89094
2022-08-29T23:28:02.629Z,10.23357
2022-08-29T23:33:04.571Z,10.23429
2022-08-29T23:38:07.811Z,10.374626
2022-08-29T23:43:09.492Z,10.492912
2022-08-29T23:48:12.224Z,10.28792
2022-08-29T23:53:13.828Z,9.2719
2022-08-29T23:58:15.937Z,8.349514
